createdAt,value
2018-12-18T00:02:16.828Z,100904.57
2018-12-18T00:04:50.994Z,100905.09
2018-12-18T00:07:24.553Z,100899.54
2018-12-18T00:09:57.197Z,100897.06
2018-12-18T00:12:31.604Z,100898.28
2018-12-18T00:15:07.055Z,100891.34
2018-12-18T00:17:53.333Z,100892.53
2018-12-18T00:20:27.795Z,100890.45
2018-12-18T00:23:01.032Z,100887.08
2018-12-18T00:25:34.592Z,100891.13
2018-12-18T00:28:07.387Z,100893.36
2018-12-18T00:30:40.947Z,100891.81
2018-12-18T00:33:13.915Z,100897.51
2018-12-18T00:35:46.511Z,100891.84
2018-12-18T00:38:19.117Z,100890.31
2018-12-18T00:40:52.144Z,100887.06
2018-12-18T00:43:24.686Z,100887.68
2018-12-18T00:45:57.378Z,100886.56
2018-12-18T00:48:31.213Z,100882.41
2018-12-18T00:51:04.624Z,100883.69
2018-12-18T00:53:37.314Z,100886.67
2018-12-18T00:56:10.211Z,100892.46
2018-12-18T00:58:46.076Z,100891.80
2018-12-18T01:01:18.855Z,100892.41
2018-12-18T01:03:52.966Z,100890.71
2018-12-18T01:06:25.820Z,100884.28
2018-12-18T01:08:59.451Z,100882.95
2018-12-18T01:11:33.696Z,100885.97
2018-12-18T01:14:06.883Z,100877.91
2018-12-18T01:16:39.611Z,100881.58
2018-12-18T01:19:13.396Z,100882.06
2018-12-18T01:21:46.005Z,100877.97
2018-12-18T01:24:18.554Z,100882.17
2018-12-18T01:26:51.825Z,100885.41
2018-12-18T01:29:24.362Z,100879.98
2018-12-18T01:31:56.938Z,100879.38
2018-12-18T01:34:29.945Z,100877.37
2018-12-18T01:37:02.501Z,100879.76
2018-12-18T01:39:35.093Z,100884.70
2018-12-18T01:42:08.116Z,100880.92
2018-12-18T01:44:41.787Z,100885.11
2018-12-18T01:47:16.295Z,100879.95
2018-12-18T01:49:49.445Z,100874.61
2018-12-18T01:52:22.055Z,100869.84
2018-12-18T01:54:55.532Z,100870.91
2018-12-18T01:57:28.581Z,100873.64
2018-12-18T02:00:01.558Z,100877.27
2018-12-18T02:02:36.446Z,100872.94
2018-12-18T02:05:10.324Z,100874.99
2018-12-18T02:07:42.853Z,100879.77
2018-12-18T02:10:15.449Z,100883.52
2018-12-18T02:12:50.324Z,100886.24
2018-12-18T02:15:22.890Z,100878.88
2018-12-18T02:17:55.865Z,100877.83
2018-12-18T02:20:29.702Z,100875.42
2018-12-18T02:23:02.391Z,100879.52
2018-12-18T02:25:34.982Z,100877.84
2018-12-18T02:28:07.964Z,100876.41
2018-12-18T02:30:40.818Z,100876.20
2018-12-18T02:33:13.376Z,100881.67
2018-12-18T02:35:46.372Z,100888.21
2018-12-18T02:38:19.864Z,100890.63
2018-12-18T02:40:52.537Z,100895.90
2018-12-18T02:43:26.435Z,100895.14
2018-12-18T02:45:59.133Z,100888.86
2018-12-18T02:48:31.983Z,100884.95
2018-12-18T02:51:06.519Z,100881.66
2018-12-18T02:53:39.065Z,100884.13
2018-12-18T02:56:12.212Z,100884.23
2018-12-18T02:58:50.714Z,100878.48
2018-12-18T03:01:23.348Z,100877.55
2018-12-18T03:03:56.173Z,100874.40
2018-12-18T03:06:29.606Z,100869.80
2018-12-18T03:09:03.484Z,100873.89
2018-12-18T03:11:37.190Z,100877.55
2018-12-18T03:14:10.144Z,100872.35
2018-12-18T03:16:42.689Z,100873.87
2018-12-18T03:19:16.048Z,100866.39
2018-12-18T03:21:50.163Z,100858.88
2018-12-18T03:24:23.983Z,100864.11
2018-12-18T03:26:56.761Z,100861.88
2018-12-18T03:29:30.502Z,100862.86
2018-12-18T03:32:08.582Z,100859.91
2018-12-18T03:34:42.061Z,100861.52
2018-12-18T03:37:18.087Z,100860.20
2018-12-18T03:39:50.909Z,100857.50
2018-12-18T03:42:24.372Z,100865.02
2018-12-18T03:44:57.497Z,100861.95
2018-12-18T03:47:33.140Z,100868.38
2018-12-18T03:50:06.622Z,100867.42
2018-12-18T03:52:40.284Z,100859.23
2018-12-18T03:55:12.921Z,100863.02
2018-12-18T03:57:45.472Z,100871.20
2018-12-18T04:00:17.911Z,100875.06
2018-12-18T04:02:50.952Z,100871.52
2018-12-18T04:05:24.620Z,100866.70
2018-12-18T04:07:58.407Z,100868.22
2018-12-18T04:10:31.980Z,100861.66
2018-12-18T04:13:04.613Z,100857.75
2018-12-18T04:15:37.672Z,100864.56
2018-12-18T04:18:11.211Z,100856.95
2018-12-18T04:20:43.717Z,100847.53
2018-12-18T04:23:16.828Z,100851.13
2018-12-18T04:25:49.308Z,100841.13
2018-12-18T04:28:22.465Z,100843.05
2018-12-18T04:30:55.704Z,100836.83
2018-12-18T04:33:28.924Z,100838.52
2018-12-18T04:36:01.486Z,100831.86
2018-12-18T04:38:35.300Z,100828.47
2018-12-18T04:41:08.626Z,100823.87
2018-12-18T04:43:41.384Z,100821.98
2018-12-18T04:46:14.867Z,100820.41
2018-12-18T04:48:47.508Z,100825.86
2018-12-18T04:51:20.239Z,100827.56
2018-12-18T04:53:54.215Z,100829.50
2018-12-18T04:56:26.774Z,100822.30
2018-12-18T04:58:59.451Z,100815.86
2018-12-18T05:01:32.612Z,100815.38
2018-12-18T05:04:06.429Z,100812.52
2018-12-18T05:06:39.084Z,100811.95
2018-12-18T05:09:12.015Z,100813.57
2018-12-18T05:11:44.972Z,100820.17
2018-12-18T05:14:18.412Z,100819.02
2018-12-18T05:16:52.392Z,100817.94
2018-12-18T05:19:26.171Z,100811.14
2018-12-18T05:21:58.974Z,100808.45
2018-12-18T05:24:33.142Z,100818.23
2018-12-18T05:27:06.764Z,100812.43
2018-12-18T05:29:39.897Z,100812.77
2018-12-18T05:32:14.409Z,100814.59
2018-12-18T05:34:47.188Z,100814.54
2018-12-18T05:37:19.952Z,100818.29
2018-12-18T05:39:54.764Z,100819.17
2018-12-18T05:42:27.353Z,100828.98
2018-12-18T05:45:00.847Z,100824.02
2018-12-18T05:47:36.416Z,100828.15
2018-12-18T05:50:09.064Z,100828.55
2018-12-18T05:52:42.387Z,100830.28
2018-12-18T05:55:15.369Z,100826.28
2018-12-18T05:57:48.014Z,100828.92
2018-12-18T06:00:20.696Z,100832.75
2018-12-18T06:02:54.363Z,100829.41
2018-12-18T06:05:28.359Z,100823.86
2018-12-18T06:08:02.470Z,100826.48
2018-12-18T06:10:36.392Z,100825.21
2018-12-18T06:13:09.078Z,100825.20
2018-12-18T06:15:42.422Z,100821.61
2018-12-18T06:18:16.283Z,100815.27
2018-12-18T06:20:48.944Z,100821.77
2018-12-18T06:23:21.615Z,100818.98
2018-12-18T06:25:56.051Z,100820.67
2018-12-18T06:28:28.899Z,100815.57
2018-12-18T06:31:01.584Z,100821.12
2018-12-18T06:33:35.657Z,100815.12
2018-12-18T06:36:08.325Z,100820.23
2018-12-18T06:38:41.044Z,100815.53
2018-12-18T06:41:13.912Z,100820.28
2018-12-18T06:43:46.608Z,100824.46
2018-12-18T06:46:19.350Z,100821.69
2018-12-18T06:48:54.301Z,100820.75
2018-12-18T06:51:26.879Z,100821.88
2018-12-18T06:53:59.425Z,100812.83
2018-12-18T06:56:32.220Z,100820.45
2018-12-18T06:59:07.122Z,100823.69
2018-12-18T07:01:39.694Z,100816.94
2018-12-18T07:04:14.181Z,100819.20
2018-12-18T07:06:46.807Z,100821.30
2018-12-18T07:09:20.753Z,100818.62
2018-12-18T07:11:53.667Z,100817.63
2018-12-18T07:14:26.968Z,100808.39
2018-12-18T07:16:59.560Z,100808.27
2018-12-18T07:19:37.256Z,100810.20
2018-12-18T07:22:09.812Z,100806.52
2018-12-18T07:24:42.548Z,100794.20
2018-12-18T07:27:16.521Z,100792.28
2018-12-18T07:29:49.125Z,100789.59
2018-12-18T07:32:21.800Z,100780.89
2018-12-18T07:34:55.764Z,100778.83
2018-12-18T07:37:31.659Z,100771.14
2018-12-18T07:40:05.969Z,100768.27
2018-12-18T07:42:39.892Z,100771.17
2018-12-18T07:45:14.291Z,100771.53
2018-12-18T07:47:47.083Z,100764.42
2018-12-18T07:50:19.846Z,100754.48
2018-12-18T07:52:53.711Z,100753.73
2018-12-18T07:55:27.053Z,100752.78
2018-12-18T07:58:01.291Z,100747.04
2018-12-18T08:00:34.005Z,100751.73
2018-12-18T08:03:07.551Z,100747.50
2018-12-18T08:05:41.572Z,100751.16
2018-12-18T08:08:15.968Z,100753.62
2018-12-18T08:10:55.697Z,100753.58
2018-12-18T08:13:40.670Z,100760.52
2018-12-18T08:16:13.342Z,100756.26
2018-12-18T08:18:47.214Z,100757.06
2018-12-18T08:21:24.048Z,100757.77
2018-12-18T08:23:59.266Z,100760.33
2018-12-18T08:26:32.247Z,100752.98
2018-12-18T08:29:05.909Z,100740.75
2018-12-18T08:31:39.492Z,100756.40
2018-12-18T08:34:16.217Z,100759.84
2018-12-18T08:36:49.750Z,100761.61
2018-12-18T08:39:22.397Z,100762.20
2018-12-18T08:41:56.598Z,100758.47
2018-12-18T08:44:29.205Z,100746.98
2018-12-18T08:47:02.677Z,100743.48
2018-12-18T08:49:36.385Z,100742.56
2018-12-18T08:52:11.126Z,100745.83
2018-12-18T08:54:46.832Z,100747.22
2018-12-18T08:57:21.426Z,100742.54
2018-12-18T08:59:55.431Z,100734.79
2018-12-18T09:02:29.811Z,100733.33
2018-12-18T09:05:09.790Z,100729.48
2018-12-18T09:07:46.377Z,100723.06
2018-12-18T09:10:19.721Z,100716.19
2018-12-18T09:12:53.124Z,100717.95
2018-12-18T09:15:32.235Z,100702.61
2018-12-18T09:18:05.762Z,100707.59
2018-12-18T09:20:39.186Z,100708.62
2018-12-18T09:23:11.994Z,100710.58
2018-12-18T09:25:45.024Z,100706.77
2018-12-18T09:28:22.791Z,100698.45
2018-12-18T09:30:55.356Z,100703.87
2018-12-18T09:33:28.392Z,100696.39
2018-12-18T09:36:01.008Z,100694.87
2018-12-18T09:38:41.320Z,100699.00
2018-12-18T09:41:21.125Z,100704.77
2018-12-18T09:44:08.018Z,100705.55
2018-12-18T09:46:40.629Z,100699.26
2018-12-18T09:49:13.657Z,100699.42
2018-12-18T09:51:47.906Z,100701.05
2018-12-18T09:54:21.364Z,100703.48
2018-12-18T09:56:59.973Z,100702.13
2018-12-18T09:59:33.632Z,100699.44
2018-12-18T10:02:07.711Z,100689.19
2018-12-18T10:04:41.069Z,100683.42
2018-12-18T10:07:14.545Z,100684.80
2018-12-18T10:09:48.656Z,100686.09
2018-12-18T10:12:28.901Z,100685.09
2018-12-18T10:15:02.999Z,100679.77
2018-12-18T10:17:35.717Z,100680.56
2018-12-18T10:20:08.770Z,100679.03
2018-12-18T10:22:54.030Z,100684.65
2018-12-18T10:25:29.049Z,100678.66
2018-12-18T10:28:05.838Z,100670.25
2018-12-18T10:30:39.613Z,100666.00
2018-12-18T10:33:12.363Z,100650.82
2018-12-18T10:35:46.888Z,100642.72
2018-12-18T10:38:19.470Z,100637.16
2018-12-18T10:40:52.077Z,100624.87
2018-12-18T10:43:26.218Z,100621.58
2018-12-18T10:45:59.757Z,100611.45
2018-12-18T10:48:33.308Z,100601.38
2018-12-18T10:51:07.552Z,100599.44
2018-12-18T10:53:40.284Z,100594.02
2018-12-18T10:56:14.588Z,100586.24
2018-12-18T10:58:47.583Z,100582.25
2018-12-18T11:01:26.477Z,100587.83
2018-12-18T11:04:01.938Z,100571.63
2018-12-18T11:06:41.659Z,100572.75
2018-12-18T11:09:16.311Z,100568.31
2018-12-18T11:11:49.497Z,100563.13
2018-12-18T11:14:22.615Z,100557.03
2018-12-18T11:16:56.432Z,100552.97
2018-12-18T11:19:30.635Z,100546.52
2018-12-18T11:22:04.781Z,100528.32
2018-12-18T11:24:37.391Z,100527.34
2018-12-18T11:27:14.104Z,100520.18
2018-12-18T11:29:48.402Z,100514.86
2018-12-18T11:32:22.382Z,100507.34
2018-12-18T11:35:00.917Z,100499.28
2018-12-18T11:37:33.721Z,100495.36
2018-12-18T11:40:07.740Z,100493.80
2018-12-18T11:42:42.840Z,100495.35
2018-12-18T11:45:17.860Z,100480.91
2018-12-18T11:47:55.912Z,100486.45
2018-12-18T11:50:29.283Z,100473.72
2018-12-18T11:53:07.999Z,100474.22
2018-12-18T11:55:41.760Z,100470.13
2018-12-18T11:58:14.897Z,100472.68
2018-12-18T12:00:54.932Z,100468.38
2018-12-18T12:03:30.716Z,100466.33
2018-12-18T12:06:22.851Z,100465.41
2018-12-18T12:09:19.823Z,100459.73
2018-12-18T12:12:08.845Z,100460.81
2018-12-18T12:14:44.300Z,100469.38
2018-12-18T12:17:17.747Z,100457.84
2018-12-18T12:19:51.290Z,100462.06
2018-12-18T12:22:25.699Z,100466.10
2018-12-18T12:25:03.784Z,100457.20
2018-12-18T12:27:43.539Z,100456.33
2018-12-18T12:30:18.419Z,100454.34
2018-12-18T12:32:52.854Z,100449.69
2018-12-18T12:35:30.655Z,100441.37
2018-12-18T12:38:12.110Z,100445.05
2018-12-18T12:40:50.979Z,100451.36
2018-12-18T12:43:27.033Z,100446.06
2018-12-18T12:46:00.199Z,100442.89
2018-12-18T12:48:39.540Z,100439.56
2018-12-18T12:51:12.350Z,100416.79
2018-12-18T12:53:46.465Z,100433.87
2018-12-18T12:56:26.695Z,100434.65
2018-12-18T12:59:00.777Z,100427.84
2018-12-18T13:01:34.163Z,100431.43
2018-12-18T13:04:08.081Z,100422.70
2018-12-18T13:06:42.273Z,100419.75
2018-12-18T13:09:16.033Z,100417.53
2018-12-18T13:11:48.755Z,100413.38
2018-12-18T13:14:22.711Z,100402.30
2018-12-18T13:16:57.033Z,100396.14
2018-12-18T13:19:30.176Z,100384.96
2018-12-18T13:22:04.323Z,100381.52
2018-12-18T13:24:39.577Z,100385.73
2018-12-18T13:27:13.436Z,100394.06
2018-12-18T13:29:49.838Z,100397.03
2018-12-18T13:32:23.849Z,100398.59
2018-12-18T13:35:06.308Z,100400.75
2018-12-18T13:37:38.874Z,100400.22
2018-12-18T13:40:13.916Z,100399.87
2018-12-18T13:42:49.004Z,100388.77
2018-12-18T13:45:21.778Z,100374.14
2018-12-18T13:47:55.249Z,100378.66
2018-12-18T13:50:28.695Z,100371.05
2018-12-18T13:53:02.081Z,100359.37
2018-12-18T13:55:37.065Z,100353.46
2018-12-18T13:58:12.992Z,100362.80
2018-12-18T14:00:49.495Z,100353.95
2018-12-18T14:03:24.711Z,100354.21
2018-12-18T14:05:58.337Z,100351.27
2018-12-18T14:08:32.452Z,100354.84
2018-12-18T14:11:06.895Z,100349.05
2018-12-18T14:13:40.989Z,100352.37
2018-12-18T14:16:15.730Z,100343.05
2018-12-18T14:18:50.811Z,100347.89
2018-12-18T14:21:29.602Z,100345.34
2018-12-18T14:24:03.037Z,100342.00
2018-12-18T14:26:37.956Z,100339.31
2018-12-18T14:29:16.784Z,100340.98
2018-12-18T14:32:04.937Z,100344.06
2018-12-18T14:34:42.511Z,100339.26
2018-12-18T14:37:16.321Z,100329.34
2018-12-18T14:39:49.077Z,100334.56
2018-12-18T14:42:26.495Z,100333.26
2018-12-18T14:45:07.507Z,100328.37
2018-12-18T14:47:43.570Z,100319.05
2018-12-18T14:50:17.721Z,100329.64
2018-12-18T14:52:51.132Z,100325.35
2018-12-18T14:55:27.888Z,100331.59
2018-12-18T14:58:06.551Z,100330.29
2018-12-18T15:00:42.428Z,100325.30
2018-12-18T15:03:16.116Z,100312.33
2018-12-18T15:05:51.741Z,100307.04
2018-12-18T15:08:28.517Z,100296.28
2018-12-18T15:11:01.340Z,100299.05
2018-12-18T15:13:36.014Z,100293.73
2018-12-18T15:16:09.317Z,100297.78
2018-12-18T15:18:42.113Z,100296.39
2018-12-18T15:21:17.505Z,100291.79
2018-12-18T15:23:56.057Z,100290.39
2018-12-18T15:26:31.774Z,100299.02
2018-12-18T15:29:11.363Z,100299.54
2018-12-18T15:31:44.116Z,100300.43
2018-12-18T15:34:18.552Z,100291.45
2018-12-18T15:36:54.386Z,100285.52
2018-12-18T15:39:28.784Z,100281.56
2018-12-18T15:42:02.376Z,100273.52
2018-12-18T15:44:39.120Z,100273.36
2018-12-18T15:47:12.552Z,100273.03
2018-12-18T15:49:47.038Z,100265.83
2018-12-18T15:52:19.930Z,100267.36
2018-12-18T15:54:53.644Z,100268.55
2018-12-18T15:57:26.209Z,100270.53
2018-12-18T16:00:00.345Z,100266.08
2018-12-18T16:02:36.028Z,100258.28
2018-12-18T16:05:09.450Z,100257.81
2018-12-18T16:07:42.423Z,100242.36
2018-12-18T16:10:15.233Z,100238.62
2018-12-18T16:12:48.213Z,100216.52
2018-12-18T16:15:22.362Z,100209.65
2018-12-18T16:17:56.848Z,100212.66
2018-12-18T16:20:37.755Z,100207.50
2018-12-18T16:23:10.995Z,100191.16
2018-12-18T16:25:45.180Z,100197.20
2018-12-18T16:28:19.049Z,100177.38
2018-12-18T16:30:52.430Z,100187.95
2018-12-18T16:33:25.815Z,100189.09
2018-12-18T16:35:59.838Z,100182.23
2018-12-18T16:38:35.412Z,100185.00
2018-12-18T16:41:08.243Z,100174.44
2018-12-18T16:43:41.823Z,100165.90
2018-12-18T16:46:17.716Z,100174.98
2018-12-18T16:48:51.412Z,100174.71
2018-12-18T16:51:25.271Z,100174.55
2018-12-18T16:54:01.599Z,100170.30
2018-12-18T16:56:34.505Z,100168.02
2018-12-18T16:59:07.382Z,100171.27
2018-12-18T17:01:43.441Z,100167.39
2018-12-18T17:04:17.815Z,100170.68
2018-12-18T17:06:53.497Z,100161.38
2018-12-18T17:09:27.332Z,100153.06
2018-12-18T17:12:00.614Z,100148.78
2018-12-18T17:14:35.140Z,100147.05
2018-12-18T17:17:10.226Z,100153.41
2018-12-18T17:19:43.088Z,100149.48
2018-12-18T17:22:15.866Z,100142.41
2018-12-18T17:24:57.377Z,100139.61
2018-12-18T17:27:30.159Z,100137.09
2018-12-18T17:30:13.318Z,100131.89
2018-12-18T17:32:46.921Z,100132.80
2018-12-18T17:35:20.456Z,100125.93
2018-12-18T17:37:54.531Z,100139.02
2018-12-18T17:40:29.048Z,100121.87
2018-12-18T17:43:03.489Z,100113.72
2018-12-18T17:45:36.928Z,100121.93
2018-12-18T17:48:13.815Z,100110.61
2018-12-18T17:50:46.965Z,100102.86
2018-12-18T17:53:21.247Z,100093.39
2018-12-18T17:55:55.391Z,100078.30
2018-12-18T17:58:30.525Z,100078.38
2018-12-18T18:01:05.192Z,100081.63
2018-12-18T18:03:41.149Z,100090.95
2018-12-18T18:06:14.570Z,100086.05
2018-12-18T18:08:47.535Z,100078.03
2018-12-18T18:11:20.253Z,100076.89
2018-12-18T18:13:53.853Z,100065.65
2018-12-18T18:16:28.829Z,100055.06
2018-12-18T18:19:04.019Z,100058.86
2018-12-18T18:21:39.545Z,100047.28
2018-12-18T18:24:14.402Z,100034.80
2018-12-18T18:26:47.355Z,100027.92
2018-12-18T18:29:22.076Z,100023.20
2018-12-18T18:31:56.265Z,100001.94
2018-12-18T18:34:30.679Z,100017.17
2018-12-18T18:37:04.851Z,99999.47
2018-12-18T18:39:39.578Z,99994.69
2018-12-18T18:42:13.375Z,99984.09
2018-12-18T18:44:48.145Z,99972.98
2018-12-18T18:47:22.923Z,99975.56
2018-12-18T18:49:59.468Z,99954.73
2018-12-18T18:52:35.462Z,99960.81
2018-12-18T18:55:08.333Z,99963.06
2018-12-18T18:57:41.609Z,99964.58
2018-12-18T19:00:18.859Z,99962.69
2018-12-18T19:02:51.593Z,99954.83
2018-12-18T19:05:26.465Z,99956.84
2018-12-18T19:08:02.911Z,99961.30
2018-12-18T19:10:37.749Z,99961.97
2018-12-18T19:13:12.531Z,99962.27
2018-12-18T19:15:45.674Z,99949.55
2018-12-18T19:18:22.992Z,99937.84
2018-12-18T19:20:57.226Z,99946.52
2018-12-18T19:23:32.178Z,99958.99
2018-12-18T19:26:09.172Z,99941.88
2018-12-18T19:28:50.071Z,99970.09
2018-12-18T19:31:26.220Z,99959.92
2018-12-18T19:34:00.546Z,99953.42
2018-12-18T19:36:33.696Z,99952.46
2018-12-18T19:39:09.691Z,99943.86
2018-12-18T19:41:42.772Z,99932.96
2018-12-18T19:44:18.542Z,99927.00
2018-12-18T19:46:53.428Z,99919.66
2018-12-18T19:49:27.487Z,99926.84
2018-12-18T19:52:02.969Z,99917.27
2018-12-18T19:54:38.473Z,99917.25
2018-12-18T19:57:14.434Z,99903.50
2018-12-18T19:59:49.837Z,99904.04
2018-12-18T20:02:24.734Z,99910.18
2018-12-18T20:04:57.874Z,99913.63
2018-12-18T20:07:31.623Z,99922.05
2018-12-18T20:10:05.865Z,99914.63
2018-12-18T20:12:39.939Z,99908.07
2018-12-18T20:15:15.774Z,99889.43
2018-12-18T20:17:51.666Z,99900.89
2018-12-18T20:20:26.249Z,99898.59
2018-12-18T20:23:01.494Z,99891.37
2018-12-18T20:25:35.962Z,99879.52
2018-12-18T20:28:10.171Z,99883.11
2018-12-18T20:30:45.605Z,99872.73
2018-12-18T20:33:20.144Z,99870.73
2018-12-18T20:35:53.381Z,99862.27
2018-12-18T20:38:26.793Z,99870.02
2018-12-18T20:41:01.086Z,99888.91
2018-12-18T20:43:35.373Z,99870.14
2018-12-18T20:46:10.012Z,99869.30
2018-12-18T20:48:44.030Z,99860.61
2018-12-18T20:51:21.679Z,99841.02
2018-12-18T20:53:55.727Z,99843.89
2018-12-18T20:56:28.880Z,99848.14
2018-12-18T20:59:04.419Z,99826.77
2018-12-18T21:01:38.229Z,99828.81
2018-12-18T21:04:11.019Z,99814.02
2018-12-18T21:06:44.087Z,99814.90
2018-12-18T21:09:17.083Z,99813.53
2018-12-18T21:11:49.805Z,99809.94
2018-12-18T21:14:27.089Z,99807.74
2018-12-18T21:17:00.545Z,99812.14
2018-12-18T21:19:38.528Z,99814.84
2018-12-18T21:22:13.685Z,99819.19
2018-12-18T21:24:49.765Z,99806.06
2018-12-18T21:27:24.787Z,99807.67
2018-12-18T21:29:59.611Z,99796.63
2018-12-18T21:32:34.540Z,99777.92
2018-12-18T21:35:09.533Z,99788.98
2018-12-18T21:37:44.763Z,99767.02
2018-12-18T21:40:19.093Z,99765.16
2018-12-18T21:42:55.817Z,99755.65
2018-12-18T21:45:35.187Z,99763.06
2018-12-18T21:48:08.750Z,99760.11
2018-12-18T21:50:42.749Z,99768.97
2018-12-18T21:53:23.844Z,99757.20
2018-12-18T21:55:57.360Z,99744.54
2018-12-18T21:58:31.771Z,99709.12
2018-12-18T22:01:06.425Z,99732.00
2018-12-18T22:03:42.485Z,99734.54
2018-12-18T22:06:16.174Z,99717.55
2018-12-18T22:08:52.016Z,99704.05
2018-12-18T22:11:26.519Z,99708.56
2018-12-18T22:14:00.807Z,99714.30
2018-12-18T22:16:35.480Z,99707.92
2018-12-18T22:19:08.550Z,99712.47
2018-12-18T22:21:44.805Z,99713.19
2018-12-18T22:24:20.407Z,99722.22
2018-12-18T22:26:53.903Z,99711.22
2018-12-18T22:29:27.502Z,99717.66
2018-12-18T22:32:01.706Z,99698.39
2018-12-18T22:34:34.226Z,99699.48
2018-12-18T22:37:07.095Z,99699.05
2018-12-18T22:39:41.420Z,99701.03
2018-12-18T22:42:16.768Z,99705.64
2018-12-18T22:44:49.456Z,99712.24
2018-12-18T22:47:22.463Z,99714.34
2018-12-18T22:49:59.064Z,99700.09
2018-12-18T22:52:31.920Z,99689.64
2018-12-18T22:55:07.961Z,99685.97
2018-12-18T22:57:43.615Z,99676.27
2018-12-18T23:00:24.388Z,99680.51
2018-12-18T23:02:57.930Z,99680.89
2018-12-18T23:05:32.361Z,99684.21
2018-12-18T23:08:06.492Z,99682.27
2018-12-18T23:10:40.804Z,99675.98
2018-12-18T23:13:23.162Z,99674.41
2018-12-18T23:15:55.790Z,99667.73
2018-12-18T23:18:28.565Z,99660.63
2018-12-18T23:21:02.864Z,99671.37
2018-12-18T23:23:36.419Z,99669.49
2018-12-18T23:26:10.189Z,99658.20
2018-12-18T23:28:42.985Z,99664.92
2018-12-18T23:31:15.920Z,99654.23
2018-12-18T23:33:48.493Z,99648.08
2018-12-18T23:36:22.379Z,99630.52
2018-12-18T23:38:56.999Z,99612.87
2018-12-18T23:41:29.945Z,99618.65
2018-12-18T23:44:04.106Z,99619.20
2018-12-18T23:46:37.990Z,99615.34
2018-12-18T23:49:12.151Z,99609.28
2018-12-18T23:51:45.011Z,99598.77
2018-12-18T23:54:18.968Z,99570.58
2018-12-18T23:56:51.529Z,99604.33
2018-12-18T23:59:24.149Z,99618.19
